sensor_id;sensor_type;location;lat;lon;timestamp;temperature;humidity
63802;DHT22;49949;43.060;25.624;2024-02-23T00:01:44;5.50;99.90
63802;DHT22;49949;43.060;25.624;2024-02-23T00:04:10;5.50;99.90
63802;DHT22;49949;43.060;25.624;2024-02-23T00:06:36;5.50;99.90
63802;DHT22;49949;43.060;25.624;2024-02-23T00:09:02;5.50;99.90
63802;DHT22;49949;43.060;25.624;2024-02-23T00:11:27;5.40;99.90
63802;DHT22;49949;43.060;25.624;2024-02-23T00:13:54;5.20;99.90
63802;DHT22;49949;43.060;25.624;2024-02-23T00:16:19;5.10;99.90
63802;DHT22;49949;43.060;25.624;2024-02-23T00:18:45;5.10;99.90
63802;DHT22;49949;43.060;25.624;2024-02-23T00:21:11;5.10;99.90
63802;DHT22;49949;43.060;25.624;2024-02-23T00:23:36;5.00;99.90
63802;DHT22;49949;43.060;25.624;2024-02-23T00:26:03;5.10;99.90
63802;DHT22;49949;43.060;25.624;2024-02-23T00:28:28;5.00;99.90
63802;DHT22;49949;43.060;25.624;2024-02-23T00:30:54;5.00;99.90
63802;DHT22;49949;43.060;25.624;2024-02-23T00:33:20;4.90;99.90
63802;DHT22;49949;43.060;25.624;2024-02-23T00:35:45;5.00;99.90
63802;DHT22;49949;43.060;25.624;2024-02-23T00:38:11;5.00;99.90
63802;DHT22;49949;43.060;25.624;2024-02-23T00:40:37;5.00;99.90
63802;DHT22;49949;43.060;25.624;2024-02-23T00:43:04;5.00;99.90
63802;DHT22;49949;43.060;25.624;2024-02-23T00:45:29;5.00;99.90
63802;DHT22;49949;43.060;25.624;2024-02-23T00:47:55;5.00;99.90
63802;DHT22;49949;43.060;25.624;2024-02-23T00:50:23;5.00;99.90
63802;DHT22;49949;43.060;25.624;2024-02-23T00:52:51;5.00;99.90
63802;DHT22;49949;43.060;25.624;2024-02-23T00:55:18;5.00;99.90
63802;DHT22;49949;43.060;25.624;2024-02-23T00:57:43;4.90;99.90
63802;DHT22;49949;43.060;25.624;2024-02-23T01:00:09;4.90;99.90
63802;DHT22;49949;43.060;25.624;2024-02-23T01:02:35;4.90;99.90
63802;DHT22;49949;43.060;25.624;2024-02-23T01:05:01;4.80;99.90
63802;DHT22;49949;43.060;25.624;2024-02-23T01:07:27;4.80;99.90
63802;DHT22;49949;43.060;25.624;2024-02-23T01:09:53;4.80;99.90
63802;DHT22;49949;43.060;25.624;2024-02-23T01:12:19;4.80;99.90
63802;DHT22;49949;43.060;25.624;2024-02-23T01:14:45;4.80;99.90
63802;DHT22;49949;43.060;25.624;2024-02-23T01:17:10;4.80;99.90
63802;DHT22;49949;43.060;25.624;2024-02-23T01:19:36;4.80;99.90
63802;DHT22;49949;43.060;25.624;2024-02-23T01:22:02;4.80;99.90
63802;DHT22;49949;43.060;25.624;2024-02-23T01:24:28;4.80;99.90
63802;DHT22;49949;43.060;25.624;2024-02-23T01:26:55;4.90;99.90
63802;DHT22;49949;43.060;25.624;2024-02-23T01:29:25;4.90;99.90
63802;DHT22;49949;43.060;25.624;2024-02-23T01:31:51;4.90;99.90
63802;DHT22;49949;43.060;25.624;2024-02-23T01:34:17;4.90;99.90
63802;DHT22;49949;43.060;25.624;2024-02-23T01:36:43;4.90;99.90
63802;DHT22;49949;43.060;25.624;2024-02-23T01:39:09;4.90;99.90
63802;DHT22;49949;43.060;25.624;2024-02-23T01:41:35;4.90;99.90
63802;DHT22;49949;43.060;25.624;2024-02-23T01:44:01;4.90;99.90
63802;DHT22;49949;43.060;25.624;2024-02-23T01:46:27;4.80;99.90
63802;DHT22;49949;43.060;25.624;2024-02-23T01:48:53;4.80;99.90
63802;DHT22;49949;43.060;25.624;2024-02-23T01:51:19;4.80;99.90
63802;DHT22;49949;43.060;25.624;2024-02-23T01:53:46;4.80;99.90
63802;DHT22;49949;43.060;25.624;2024-02-23T01:56:14;4.70;99.90
63802;DHT22;49949;43.060;25.624;2024-02-23T01:58:44;4.70;99.90
63802;DHT22;49949;43.060;25.624;2024-02-23T02:01:10;4.60;99.90
63802;DHT22;49949;43.060;25.624;2024-02-23T02:03:38;4.50;99.90
63802;DHT22;49949;43.060;25.624;2024-02-23T02:06:05;4.40;99.90
63802;DHT22;49949;43.060;25.624;2024-02-23T02:08:33;4.40;99.90
63802;DHT22;49949;43.060;25.624;2024-02-23T02:10:59;4.50;99.90
63802;DHT22;49949;43.060;25.624;2024-02-23T02:13:24;4.40;99.90
63802;DHT22;49949;43.060;25.624;2024-02-23T02:15:50;4.40;99.90
63802;DHT22;49949;43.060;25.624;2024-02-23T02:18:15;4.40;99.90
63802;DHT22;49949;43.060;25.624;2024-02-23T02:20:56;4.40;99.90
63802;DHT22;49949;43.060;25.624;2024-02-23T02:23:23;4.40;99.90
63802;DHT22;49949;43.060;25.624;2024-02-23T02:25:58;4.40;99.90
63802;DHT22;49949;43.060;25.624;2024-02-23T02:28:25;4.40;99.90
63802;DHT22;49949;43.060;25.624;2024-02-23T02:30:51;4.40;99.90
63802;DHT22;49949;43.060;25.624;2024-02-23T02:33:21;4.40;99.90
63802;DHT22;49949;43.060;25.624;2024-02-23T02:35:47;4.30;99.90
63802;DHT22;49949;43.060;25.624;2024-02-23T02:38:13;4.30;99.90
63802;DHT22;49949;43.060;25.624;2024-02-23T02:40:38;4.30;99.90
63802;DHT22;49949;43.060;25.624;2024-02-23T02:43:04;4.30;99.90
63802;DHT22;49949;43.060;25.624;2024-02-23T02:45:31;4.30;99.90
63802;DHT22;49949;43.060;25.624;2024-02-23T02:47:56;4.40;99.90
63802;DHT22;49949;43.060;25.624;2024-02-23T02:50:22;4.30;99.90
63802;DHT22;49949;43.060;25.624;2024-02-23T02:52:48;4.30;99.90
63802;DHT22;49949;43.060;25.624;2024-02-23T02:55:14;4.30;99.90
63802;DHT22;49949;43.060;25.624;2024-02-23T02:57:40;4.30;99.90
63802;DHT22;49949;43.060;25.624;2024-02-23T03:00:09;4.30;99.90
63802;DHT22;49949;43.060;25.624;2024-02-23T03:02:35;4.30;99.90
63802;DHT22;49949;43.060;25.624;2024-02-23T03:05:01;4.30;99.90
63802;DHT22;49949;43.060;25.624;2024-02-23T03:07:26;4.20;99.90
63802;DHT22;49949;43.060;25.624;2024-02-23T03:09:52;4.30;99.90
63802;DHT22;49949;43.060;25.624;2024-02-23T03:12:18;4.30;99.90
63802;DHT22;49949;43.060;25.624;2024-02-23T03:14:44;4.40;99.90
63802;DHT22;49949;43.060;25.624;2024-02-23T03:17:10;4.40;99.90
63802;DHT22;49949;43.060;25.624;2024-02-23T03:19:36;4.40;99.90
63802;DHT22;49949;43.060;25.624;2024-02-23T03:22:02;4.40;99.90
63802;DHT22;49949;43.060;25.624;2024-02-23T03:24:28;4.50;99.90
63802;DHT22;49949;43.060;25.624;2024-02-23T03:26:54;4.50;99.90
63802;DHT22;49949;43.060;25.624;2024-02-23T03:29:20;4.50;99.90
63802;DHT22;49949;43.060;25.624;2024-02-23T03:31:47;4.60;99.90
63802;DHT22;49949;43.060;25.624;2024-02-23T03:34:13;4.60;99.90
63802;DHT22;49949;43.060;25.624;2024-02-23T03:36:38;4.60;99.90
63802;DHT22;49949;43.060;25.624;2024-02-23T03:39:04;4.70;99.90
63802;DHT22;49949;43.060;25.624;2024-02-23T03:41:31;4.70;99.90
63802;DHT22;49949;43.060;25.624;2024-02-23T03:43:56;4.60;99.90
63802;DHT22;49949;43.060;25.624;2024-02-23T03:46:22;4.70;99.90
63802;DHT22;49949;43.060;25.624;2024-02-23T03:48:48;4.70;99.90
63802;DHT22;49949;43.060;25.624;2024-02-23T03:51:13;4.70;99.90
63802;DHT22;49949;43.060;25.624;2024-02-23T03:53:39;4.80;99.90
63802;DHT22;49949;43.060;25.624;2024-02-23T03:56:05;4.80;99.90
63802;DHT22;49949;43.060;25.624;2024-02-23T03:58:30;4.80;99.90
63802;DHT22;49949;43.060;25.624;2024-02-23T04:00:56;4.70;99.90
63802;DHT22;49949;43.060;25.624;2024-02-23T04:03:22;4.70;99.90
63802;DHT22;49949;43.060;25.624;2024-02-23T04:05:47;4.70;99.90
63802;DHT22;49949;43.060;25.624;2024-02-23T04:08:13;4.70;99.90
63802;DHT22;49949;43.060;25.624;2024-02-23T04:10:39;4.60;99.90
63802;DHT22;49949;43.060;25.624;2024-02-23T04:13:04;4.50;99.90
63802;DHT22;49949;43.060;25.624;2024-02-23T04:15:30;4.60;99.90
63802;DHT22;49949;43.060;25.624;2024-02-23T04:17:56;4.50;99.90
63802;DHT22;49949;43.060;25.624;2024-02-23T04:20:21;4.60;99.90
63802;DHT22;49949;43.060;25.624;2024-02-23T04:22:47;4.50;99.90
63802;DHT22;49949;43.060;25.624;2024-02-23T04:25:13;4.50;99.90
63802;DHT22;49949;43.060;25.624;2024-02-23T04:27:38;4.50;99.90
63802;DHT22;49949;43.060;25.624;2024-02-23T04:30:05;4.50;99.90
63802;DHT22;49949;43.060;25.624;2024-02-23T04:32:31;4.50;99.90
63802;DHT22;49949;43.060;25.624;2024-02-23T04:34:57;4.40;99.90
63802;DHT22;49949;43.060;25.624;2024-02-23T04:37:23;4.30;99.90
63802;DHT22;49949;43.060;25.624;2024-02-23T04:39:48;4.20;99.90
63802;DHT22;49949;43.060;25.624;2024-02-23T04:42:14;4.10;99.90
63802;DHT22;49949;43.060;25.624;2024-02-23T04:44:43;4.10;99.90
63802;DHT22;49949;43.060;25.624;2024-02-23T04:47:09;4.10;99.90
63802;DHT22;49949;43.060;25.624;2024-02-23T04:49:35;4.20;99.90
63802;DHT22;49949;43.060;25.624;2024-02-23T04:52:00;4.10;99.90
63802;DHT22;49949;43.060;25.624;2024-02-23T04:54:26;4.10;99.90
63802;DHT22;49949;43.060;25.624;2024-02-23T04:56:52;4.10;99.90
63802;DHT22;49949;43.060;25.624;2024-02-23T04:59:18;4.10;99.90
63802;DHT22;49949;43.060;25.624;2024-02-23T05:01:43;4.10;99.90
63802;DHT22;49949;43.060;25.624;2024-02-23T05:04:09;4.20;99.90
63802;DHT22;49949;43.060;25.624;2024-02-23T05:06:35;4.10;99.90
63802;DHT22;49949;43.060;25.624;2024-02-23T05:09:01;4.00;99.90
63802;DHT22;49949;43.060;25.624;2024-02-23T05:11:27;4.00;99.90
63802;DHT22;49949;43.060;25.624;2024-02-23T05:13:53;4.00;99.90
63802;DHT22;49949;43.060;25.624;2024-02-23T05:16:18;4.00;99.90
63802;DHT22;49949;43.060;25.624;2024-02-23T05:18:44;4.00;99.90
63802;DHT22;49949;43.060;25.624;2024-02-23T05:21:12;4.00;99.90
63802;DHT22;49949;43.060;25.624;2024-02-23T05:23:39;4.00;99.90
63802;DHT22;49949;43.060;25.624;2024-02-23T05:26:05;4.00;99.90
63802;DHT22;49949;43.060;25.624;2024-02-23T05:28:31;4.00;99.90
63802;DHT22;49949;43.060;25.624;2024-02-23T05:30:56;4.10;99.90
63802;DHT22;49949;43.060;25.624;2024-02-23T05:33:22;4.00;99.90
63802;DHT22;49949;43.060;25.624;2024-02-23T05:35:48;4.00;99.90
63802;DHT22;49949;43.060;25.624;2024-02-23T05:38:14;4.00;99.90
63802;DHT22;49949;43.060;25.624;2024-02-23T05:40:41;4.00;99.90
63802;DHT22;49949;43.060;25.624;2024-02-23T05:43:06;4.10;99.90
63802;DHT22;49949;43.060;25.624;2024-02-23T05:45:32;4.10;99.90
63802;DHT22;49949;43.060;25.624;2024-02-23T05:47:58;4.20;99.90
63802;DHT22;49949;43.060;25.624;2024-02-23T05:50:24;4.20;99.90
63802;DHT22;49949;43.060;25.624;2024-02-23T05:52:50;4.30;99.90
63802;DHT22;49949;43.060;25.624;2024-02-23T05:55:15;4.40;99.90
63802;DHT22;49949;43.060;25.624;2024-02-23T05:57:41;4.50;99.90
63802;DHT22;49949;43.060;25.624;2024-02-23T06:00:08;4.60;99.90
63802;DHT22;49949;43.060;25.624;2024-02-23T06:02:33;4.70;99.90
63802;DHT22;49949;43.060;25.624;2024-02-23T06:04:59;4.80;99.90
63802;DHT22;49949;43.060;25.624;2024-02-23T06:07:25;4.90;99.90
63802;DHT22;49949;43.060;25.624;2024-02-23T06:09:55;5.00;99.90
63802;DHT22;49949;43.060;25.624;2024-02-23T06:12:22;5.00;99.90
63802;DHT22;49949;43.060;25.624;2024-02-23T06:14:47;5.10;99.90
63802;DHT22;49949;43.060;25.624;2024-02-23T06:17:13;5.20;99.90
63802;DHT22;49949;43.060;25.624;2024-02-23T06:19:39;5.30;99.90
63802;DHT22;49949;43.060;25.624;2024-02-23T06:22:04;5.40;99.90
63802;DHT22;49949;43.060;25.624;2024-02-23T06:24:30;5.40;99.90
63802;DHT22;49949;43.060;25.624;2024-02-23T06:26:56;5.50;99.90
63802;DHT22;49949;43.060;25.624;2024-02-23T06:29:23;5.50;99.90
63802;DHT22;49949;43.060;25.624;2024-02-23T06:31:49;5.40;99.90
63802;DHT22;49949;43.060;25.624;2024-02-23T06:34:15;5.40;99.90
63802;DHT22;49949;43.060;25.624;2024-02-23T06:36:41;5.40;99.90
63802;DHT22;49949;43.060;25.624;2024-02-23T06:39:07;5.50;99.90
63802;DHT22;49949;43.060;25.624;2024-02-23T06:41:34;5.60;99.90
63802;DHT22;49949;43.060;25.624;2024-02-23T06:43:59;5.60;99.90
63802;DHT22;49949;43.060;25.624;2024-02-23T06:46:26;5.70;99.90
63802;DHT22;49949;43.060;25.624;2024-02-23T06:48:51;5.80;99.90
63802;DHT22;49949;43.060;25.624;2024-02-23T06:51:17;5.80;99.90
63802;DHT22;49949;43.060;25.624;2024-02-23T06:53:43;5.90;99.90
63802;DHT22;49949;43.060;25.624;2024-02-23T06:56:08;5.90;99.90
63802;DHT22;49949;43.060;25.624;2024-02-23T06:58:34;6.00;99.90
63802;DHT22;49949;43.060;25.624;2024-02-23T07:01:01;6.10;99.90
63802;DHT22;49949;43.060;25.624;2024-02-23T07:03:28;6.30;99.90
63802;DHT22;49949;43.060;25.624;2024-02-23T07:05:55;6.40;99.90
63802;DHT22;49949;43.060;25.624;2024-02-23T07:08:21;6.60;99.90
63802;DHT22;49949;43.060;25.624;2024-02-23T07:10:46;6.70;99.90
63802;DHT22;49949;43.060;25.624;2024-02-23T07:13:12;6.90;99.90
63802;DHT22;49949;43.060;25.624;2024-02-23T07:15:38;7.10;99.90
63802;DHT22;49949;43.060;25.624;2024-02-23T07:18:04;7.20;99.90
63802;DHT22;49949;43.060;25.624;2024-02-23T07:20:30;7.40;99.90
63802;DHT22;49949;43.060;25.624;2024-02-23T07:22:55;7.60;99.90
63802;DHT22;49949;43.060;25.624;2024-02-23T07:25:21;7.70;99.90
63802;DHT22;49949;43.060;25.624;2024-02-23T07:27:47;8.00;99.90
63802;DHT22;49949;43.060;25.624;2024-02-23T07:30:16;8.10;99.90
63802;DHT22;49949;43.060;25.624;2024-02-23T07:32:42;8.30;99.90
63802;DHT22;49949;43.060;25.624;2024-02-23T07:35:09;8.50;99.90
63802;DHT22;49949;43.060;25.624;2024-02-23T07:37:35;8.70;99.90
63802;DHT22;49949;43.060;25.624;2024-02-23T07:40:01;8.90;99.90
63802;DHT22;49949;43.060;25.624;2024-02-23T07:42:29;9.10;99.90
63802;DHT22;49949;43.060;25.624;2024-02-23T07:44:55;9.30;99.90
63802;DHT22;49949;43.060;25.624;2024-02-23T07:47:22;9.50;99.90
63802;DHT22;49949;43.060;25.624;2024-02-23T07:49:47;9.80;99.90
63802;DHT22;49949;43.060;25.624;2024-02-23T07:52:13;10.10;99.90
63802;DHT22;49949;43.060;25.624;2024-02-23T07:54:39;10.30;99.90
63802;DHT22;49949;43.060;25.624;2024-02-23T07:57:04;10.60;99.90
63802;DHT22;49949;43.060;25.624;2024-02-23T07:59:30;10.90;99.90
63802;DHT22;49949;43.060;25.624;2024-02-23T08:01:57;11.10;99.90
63802;DHT22;49949;43.060;25.624;2024-02-23T08:04:22;11.40;99.90
63802;DHT22;49949;43.060;25.624;2024-02-23T08:06:48;11.70;99.90
63802;DHT22;49949;43.060;25.624;2024-02-23T08:09:14;12.10;99.90
63802;DHT22;49949;43.060;25.624;2024-02-23T08:11:40;12.50;99.90
63802;DHT22;49949;43.060;25.624;2024-02-23T08:14:06;12.70;99.90
63802;DHT22;49949;43.060;25.624;2024-02-23T08:16:33;13.00;99.90
63802;DHT22;49949;43.060;25.624;2024-02-23T08:18:58;13.20;99.90
63802;DHT22;49949;43.060;25.624;2024-02-23T08:21:25;13.40;99.90
63802;DHT22;49949;43.060;25.624;2024-02-23T08:23:51;13.50;99.90
63802;DHT22;49949;43.060;25.624;2024-02-23T08:26:17;13.80;99.90
63802;DHT22;49949;43.060;25.624;2024-02-23T08:28:43;14.00;99.90
63802;DHT22;49949;43.060;25.624;2024-02-23T08:31:09;14.20;99.90
63802;DHT22;49949;43.060;25.624;2024-02-23T08:33:34;14.40;99.90
63802;DHT22;49949;43.060;25.624;2024-02-23T08:36:00;14.60;99.90
63802;DHT22;49949;43.060;25.624;2024-02-23T08:38:26;14.90;99.90
63802;DHT22;49949;43.060;25.624;2024-02-23T08:40:51;15.00;99.90
63802;DHT22;49949;43.060;25.624;2024-02-23T08:43:17;15.10;99.90
63802;DHT22;49949;43.060;25.624;2024-02-23T08:45:43;15.30;99.90
63802;DHT22;49949;43.060;25.624;2024-02-23T08:48:09;15.40;99.90
63802;DHT22;49949;43.060;25.624;2024-02-23T08:50:34;15.50;99.90
63802;DHT22;49949;43.060;25.624;2024-02-23T08:53:00;15.50;99.90
63802;DHT22;49949;43.060;25.624;2024-02-23T08:55:26;15.70;99.90
63802;DHT22;49949;43.060;25.624;2024-02-23T08:57:51;15.90;99.90
63802;DHT22;49949;43.060;25.624;2024-02-23T09:00:17;16.20;99.90
63802;DHT22;49949;43.060;25.624;2024-02-23T09:02:43;16.50;99.90
63802;DHT22;49949;43.060;25.624;2024-02-23T09:05:09;16.70;99.90
63802;DHT22;49949;43.060;25.624;2024-02-23T09:07:35;16.90;99.90
63802;DHT22;49949;43.060;25.624;2024-02-23T09:10:01;17.00;98.70
63802;DHT22;49949;43.060;25.624;2024-02-23T09:12:27;17.00;99.90
63802;DHT22;49949;43.060;25.624;2024-02-23T09:14:53;17.10;98.40
63802;DHT22;49949;43.060;25.624;2024-02-23T09:17:19;17.10;94.80
63802;DHT22;49949;43.060;25.624;2024-02-23T09:19:46;17.60;94.10
63802;DHT22;49949;43.060;25.624;2024-02-23T09:22:12;18.50;89.80
63802;DHT22;49949;43.060;25.624;2024-02-23T09:24:41;19.50;82.40
63802;DHT22;49949;43.060;25.624;2024-02-23T09:27:07;20.00;76.70
63802;DHT22;49949;43.060;25.624;2024-02-23T09:29:33;20.20;75.10
63802;DHT22;49949;43.060;25.624;2024-02-23T09:31:59;20.20;75.50
63802;DHT22;49949;43.060;25.624;2024-02-23T09:34:25;20.00;73.70
63802;DHT22;49949;43.060;25.624;2024-02-23T09:36:51;20.60;74.00
63802;DHT22;49949;43.060;25.624;2024-02-23T09:39:17;20.50;73.00
63802;DHT22;49949;43.060;25.624;2024-02-23T09:41:43;21.30;72.60
63802;DHT22;49949;43.060;25.624;2024-02-23T09:44:09;21.70;65.80
63802;DHT22;49949;43.060;25.624;2024-02-23T09:46:40;21.50;65.30
63802;DHT22;49949;43.060;25.624;2024-02-23T09:49:11;20.90;66.80
63802;DHT22;49949;43.060;25.624;2024-02-23T09:51:39;21.10;64.80
63802;DHT22;49949;43.060;25.624;2024-02-23T09:54:05;21.10;66.50
63802;DHT22;49949;43.060;25.624;2024-02-23T09:56:30;20.00;69.70
63802;DHT22;49949;43.060;25.624;2024-02-23T09:59:00;20.00;70.90
63802;DHT22;49949;43.060;25.624;2024-02-23T10:01:31;19.80;71.20
63802;DHT22;49949;43.060;25.624;2024-02-23T10:04:00;20.00;69.50
63802;DHT22;49949;43.060;25.624;2024-02-23T10:06:27;20.20;65.90
63802;DHT22;49949;43.060;25.624;2024-02-23T10:08:55;20.40;69.10
63802;DHT22;49949;43.060;25.624;2024-02-23T10:11:21;20.40;66.30
63802;DHT22;49949;43.060;25.624;2024-02-23T10:13:48;19.90;68.10
63802;DHT22;49949;43.060;25.624;2024-02-23T10:16:21;19.70;72.60
63802;DHT22;49949;43.060;25.624;2024-02-23T10:18:48;19.60;73.00
63802;DHT22;49949;43.060;25.624;2024-02-23T10:21:17;19.60;73.80
63802;DHT22;49949;43.060;25.624;2024-02-23T10:23:47;19.50;72.70
63802;DHT22;49949;43.060;25.624;2024-02-23T10:26:13;19.00;72.00
63802;DHT22;49949;43.060;25.624;2024-02-23T10:28:45;18.80;72.60
63802;DHT22;49949;43.060;25.624;2024-02-23T10:31:12;18.70;70.90
63802;DHT22;49949;43.060;25.624;2024-02-23T10:33:38;18.60;71.30
63802;DHT22;49949;43.060;25.624;2024-02-23T10:36:05;18.60;71.30
63802;DHT22;49949;43.060;25.624;2024-02-23T10:38:35;18.60;71.60
63802;DHT22;49949;43.060;25.624;2024-02-23T10:41:05;18.60;70.00
63802;DHT22;49949;43.060;25.624;2024-02-23T10:43:44;18.60;70.90
63802;DHT22;49949;43.060;25.624;2024-02-23T10:46:11;18.70;72.50
63802;DHT22;49949;43.060;25.624;2024-02-23T10:48:40;18.70;72.00
63802;DHT22;49949;43.060;25.624;2024-02-23T10:51:07;18.80;68.10
63802;DHT22;49949;43.060;25.624;2024-02-23T10:53:34;18.80;68.10
63802;DHT22;49949;43.060;25.624;2024-02-23T10:56:00;18.90;70.40
63802;DHT22;49949;43.060;25.624;2024-02-23T10:58:26;18.90;67.10
63802;DHT22;49949;43.060;25.624;2024-02-23T11:00:53;18.90;68.60
63802;DHT22;49949;43.060;25.624;2024-02-23T11:03:23;18.90;70.70
63802;DHT22;49949;43.060;25.624;2024-02-23T11:05:48;19.00;70.50
63802;DHT22;49949;43.060;25.624;2024-02-23T11:08:17;19.00;70.20
63802;DHT22;49949;43.060;25.624;2024-02-23T11:10:51;19.10;77.50
63802;DHT22;49949;43.060;25.624;2024-02-23T11:13:30;19.10;73.40
63802;DHT22;49949;43.060;25.624;2024-02-23T11:16:06;19.10;68.60
63802;DHT22;49949;43.060;25.624;2024-02-23T11:18:33;19.10;68.60
63802;DHT22;49949;43.060;25.624;2024-02-23T11:21:02;19.00;70.40
63802;DHT22;49949;43.060;25.624;2024-02-23T11:23:48;19.10;67.90
63802;DHT22;49949;43.060;25.624;2024-02-23T11:26:17;19.10;68.10
63802;DHT22;49949;43.060;25.624;2024-02-23T11:28:52;19.10;72.70
63802;DHT22;49949;43.060;25.624;2024-02-23T11:31:22;19.10;72.30
63802;DHT22;49949;43.060;25.624;2024-02-23T11:33:56;19.00;69.30
63802;DHT22;49949;43.060;25.624;2024-02-23T11:36:30;18.90;68.80
63802;DHT22;49949;43.060;25.624;2024-02-23T11:38:58;19.00;71.60
63802;DHT22;49949;43.060;25.624;2024-02-23T11:41:25;19.00;71.20
63802;DHT22;49949;43.060;25.624;2024-02-23T11:43:52;18.90;71.30
63802;DHT22;49949;43.060;25.624;2024-02-23T11:46:19;19.00;69.60
63802;DHT22;49949;43.060;25.624;2024-02-23T11:48:45;19.00;67.90
63802;DHT22;49949;43.060;25.624;2024-02-23T11:51:20;19.10;70.40
63802;DHT22;49949;43.060;25.624;2024-02-23T11:53:49;19.10;66.60
63802;DHT22;49949;43.060;25.624;2024-02-23T11:56:15;19.10;72.50
63802;DHT22;49949;43.060;25.624;2024-02-23T11:58:41;19.10;71.20
63802;DHT22;49949;43.060;25.624;2024-02-23T12:01:07;19.10;72.30
63802;DHT22;49949;43.060;25.624;2024-02-23T12:03:33;19.00;71.10
63802;DHT22;49949;43.060;25.624;2024-02-23T12:06:02;19.00;70.10
63802;DHT22;49949;43.060;25.624;2024-02-23T12:08:30;19.10;67.60
63802;DHT22;49949;43.060;25.624;2024-02-23T12:11:03;19.40;68.50
63802;DHT22;49949;43.060;25.624;2024-02-23T12:13:29;19.30;64.80
63802;DHT22;49949;43.060;25.624;2024-02-23T12:15:55;19.10;63.10
63802;DHT22;49949;43.060;25.624;2024-02-23T12:18:22;19.10;63.20
63802;DHT22;49949;43.060;25.624;2024-02-23T12:21:03;19.20;64.20
63802;DHT22;49949;43.060;25.624;2024-02-23T12:23:43;19.40;63.10
63802;DHT22;49949;43.060;25.624;2024-02-23T12:26:18;19.30;62.70
63802;DHT22;49949;43.060;25.624;2024-02-23T12:28:44;19.40;61.60
63802;DHT22;49949;43.060;25.624;2024-02-23T12:31:11;19.40;64.70
63802;DHT22;49949;43.060;25.624;2024-02-23T12:33:38;19.50;65.50
63802;DHT22;49949;43.060;25.624;2024-02-23T12:36:05;19.30;61.30
63802;DHT22;49949;43.060;25.624;2024-02-23T12:38:32;19.40;65.30
63802;DHT22;49949;43.060;25.624;2024-02-23T12:40:59;19.40;62.70
63802;DHT22;49949;43.060;25.624;2024-02-23T12:43:25;19.50;65.30
63802;DHT22;49949;43.060;25.624;2024-02-23T12:45:54;19.50;66.90
63802;DHT22;49949;43.060;25.624;2024-02-23T12:48:20;19.50;65.10
63802;DHT22;49949;43.060;25.624;2024-02-23T12:50:47;19.40;64.80
63802;DHT22;49949;43.060;25.624;2024-02-23T12:53:38;19.40;64.80
63802;DHT22;49949;43.060;25.624;2024-02-23T12:56:06;19.40;64.90
63802;DHT22;49949;43.060;25.624;2024-02-23T12:58:33;19.30;66.30
63802;DHT22;49949;43.060;25.624;2024-02-23T13:00:59;19.30;66.50
63802;DHT22;49949;43.060;25.624;2024-02-23T13:03:26;19.20;65.70
63802;DHT22;49949;43.060;25.624;2024-02-23T13:05:55;19.30;65.10
63802;DHT22;49949;43.060;25.624;2024-02-23T13:08:22;19.40;64.10
63802;DHT22;49949;43.060;25.624;2024-02-23T13:10:49;19.40;64.10
63802;DHT22;49949;43.060;25.624;2024-02-23T13:13:14;19.30;62.10
63802;DHT22;49949;43.060;25.624;2024-02-23T13:15:41;19.40;61.80
63802;DHT22;49949;43.060;25.624;2024-02-23T13:18:07;19.50;63.80
63802;DHT22;49949;43.060;25.624;2024-02-23T13:20:33;19.50;62.90
63802;DHT22;49949;43.060;25.624;2024-02-23T13:22:59;19.50;64.00
63802;DHT22;49949;43.060;25.624;2024-02-23T13:25:24;19.50;65.50
63802;DHT22;49949;43.060;25.624;2024-02-23T13:27:50;19.50;64.50
63802;DHT22;49949;43.060;25.624;2024-02-23T13:30:16;19.30;64.10
63802;DHT22;49949;43.060;25.624;2024-02-23T13:32:41;19.30;63.80
63802;DHT22;49949;43.060;25.624;2024-02-23T13:35:07;19.30;64.80
63802;DHT22;49949;43.060;25.624;2024-02-23T13:37:34;19.30;63.90
63802;DHT22;49949;43.060;25.624;2024-02-23T13:40:00;19.40;64.10
63802;DHT22;49949;43.060;25.624;2024-02-23T13:42:26;19.50;65.20
63802;DHT22;49949;43.060;25.624;2024-02-23T13:44:51;19.60;65.50
63802;DHT22;49949;43.060;25.624;2024-02-23T13:47:17;19.70;63.20
63802;DHT22;49949;43.060;25.624;2024-02-23T13:49:43;19.70;62.80
63802;DHT22;49949;43.060;25.624;2024-02-23T13:52:08;19.60;61.90
63802;DHT22;49949;43.060;25.624;2024-02-23T13:54:34;19.60;64.10
63802;DHT22;49949;43.060;25.624;2024-02-23T13:57:00;19.60;63.50
63802;DHT22;49949;43.060;25.624;2024-02-23T13:59:26;19.60;62.90
63802;DHT22;49949;43.060;25.624;2024-02-23T14:01:51;19.50;63.20
63802;DHT22;49949;43.060;25.624;2024-02-23T14:04:18;19.40;63.00
63802;DHT22;49949;43.060;25.624;2024-02-23T14:06:44;19.40;63.10
63802;DHT22;49949;43.060;25.624;2024-02-23T14:09:09;19.30;63.40
63802;DHT22;49949;43.060;25.624;2024-02-23T14:11:36;19.20;64.40
63802;DHT22;49949;43.060;25.624;2024-02-23T14:14:02;19.20;64.60
63802;DHT22;49949;43.060;25.624;2024-02-23T14:16:28;19.10;63.90
63802;DHT22;49949;43.060;25.624;2024-02-23T14:18:54;19.10;63.70
63802;DHT22;49949;43.060;25.624;2024-02-23T14:21:20;19.00;64.80
63802;DHT22;49949;43.060;25.624;2024-02-23T14:23:48;19.00;65.30
63802;DHT22;49949;43.060;25.624;2024-02-23T14:26:14;19.00;64.10
63802;DHT22;49949;43.060;25.624;2024-02-23T14:28:39;19.00;64.40
63802;DHT22;49949;43.060;25.624;2024-02-23T14:31:06;19.00;64.10
63802;DHT22;49949;43.060;25.624;2024-02-23T14:33:32;19.00;65.10
63802;DHT22;49949;43.060;25.624;2024-02-23T14:35:58;18.90;65.10
63802;DHT22;49949;43.060;25.624;2024-02-23T14:38:24;18.80;65.10
63802;DHT22;49949;43.060;25.624;2024-02-23T14:40:50;18.80;65.00
63802;DHT22;49949;43.060;25.624;2024-02-23T14:43:16;18.70;65.50
63802;DHT22;49949;43.060;25.624;2024-02-23T14:45:42;18.70;65.30
63802;DHT22;49949;43.060;25.624;2024-02-23T14:48:08;18.70;66.30
63802;DHT22;49949;43.060;25.624;2024-02-23T14:50:34;18.70;66.00
63802;DHT22;49949;43.060;25.624;2024-02-23T14:53:00;18.70;65.30
63802;DHT22;49949;43.060;25.624;2024-02-23T14:55:25;18.70;65.30
63802;DHT22;49949;43.060;25.624;2024-02-23T14:57:51;18.70;65.80
63802;DHT22;49949;43.060;25.624;2024-02-23T15:00:17;18.70;66.50
63802;DHT22;49949;43.060;25.624;2024-02-23T15:02:43;18.60;70.70
63802;DHT22;49949;43.060;25.624;2024-02-23T15:05:09;18.50;72.90
63802;DHT22;49949;43.060;25.624;2024-02-23T15:07:35;18.30;77.90
63802;DHT22;49949;43.060;25.624;2024-02-23T15:10:03;18.00;76.70
63802;DHT22;49949;43.060;25.624;2024-02-23T15:12:34;17.90;77.40
63802;DHT22;49949;43.060;25.624;2024-02-23T15:15:00;17.80;81.40
63802;DHT22;49949;43.060;25.624;2024-02-23T15:17:26;17.70;78.40
63802;DHT22;49949;43.060;25.624;2024-02-23T15:19:51;17.50;83.20